Portada
METAR-TAF:

METAR-TAF

Aeropuertos :

Béziers, Francia

latitud: 43-19N, longitud: 003-21E, altitud: 17 m

Observación

El informe se hizo hace 18 minutos, a las 16:00 UTC
Viento 6 kt del sureste, variando entre este y sur-sureste
Temperatura 13°C
Humedad 72%
Presión 1029 hPa
Visibilidad 10 km o más
sin nubes por debajo de 1500 m y sin presencia de cumulonimbus.

METAR: LFMU 161600Z AUTO 13006KT 090V160 CAVOK 13/08 Q1029 NOSIG

Hora: 17:18 (16:18 UTC)

Pronóstico

El informe se hizo hace 2 horas y 18 minutos, a las 14:00 UTC
Pronóstico válido del 16 a las 15 UTC al 17 a las 15 UTC
Viento 5 kt del este
Visibilidad 10 km o más
Cielo nuboso a una altura de 2500 ft
Evolucionando progresivamente
del 16 a las 21 UTC al 16 a las 23 UTC
Viento 10 kt del este
Visibilidad: 1200 m
Cielo nuboso a una altura de 1000 ft
neblina

TAF: LFMU 161400Z 1615/1715 08005KT 9999 BKN025 BECMG 1621/1623 09010KT 1200 BR BKN010

Observaciones y pronósticos meteorológicos de más de 4000 aeropuertos (mensajes METAR y TAF).

Los puntos amarillos y rojos representan las estaciones disponibles.

Ponga el ratón en el punto deseado para ver el nombre de la estación.

Haga clic para ver las observaciones y los pronósticos meteorológicos.

Para cambiar el mapa : haga clic en los botones verdes con una cruz de color negro para hacer un zoom, en el botón verde con un guión para alejar o en las flechas verdes para mapas adyacentes.


METAR-TAF: